createdAt,value
2022-08-18T00:02:11.485Z,24.62
2022-08-18T00:04:49.749Z,24.62
2022-08-18T00:07:25.870Z,24.60
2022-08-18T00:10:01.300Z,24.59
2022-08-18T00:12:43.234Z,24.54
2022-08-18T00:15:16.539Z,24.39
2022-08-18T00:17:48.529Z,24.36
2022-08-18T00:20:23.970Z,24.40
2022-08-18T00:22:58.635Z,24.43
2022-08-18T00:25:30.221Z,24.45
2022-08-18T00:28:02.225Z,24.47
2022-08-18T00:30:34.457Z,24.48
2022-08-18T00:33:09.082Z,24.47
2022-08-18T00:35:40.864Z,24.44
2022-08-18T00:38:24.786Z,24.41
2022-08-18T00:40:57.075Z,24.37
2022-08-18T00:43:35.951Z,24.36
2022-08-18T00:46:11.664Z,24.29
2022-08-18T00:48:48.838Z,24.26
2022-08-18T00:51:46.806Z,24.26
2022-08-18T00:54:26.477Z,24.19
2022-08-18T00:57:06.650Z,24.18
2022-08-18T00:59:50.063Z,24.13
2022-08-18T01:02:31.814Z,24.08
2022-08-18T01:05:09.119Z,24.06
2022-08-18T01:07:46.602Z,24.03
2022-08-18T01:10:22.549Z,23.99
2022-08-18T01:12:57.774Z,23.96
2022-08-18T01:15:30.529Z,23.93
2022-08-18T01:18:29.848Z,23.91
2022-08-18T01:21:33.785Z,23.87
2022-08-18T01:24:08.968Z,23.86
2022-08-18T01:26:46.457Z,23.83
2022-08-18T01:29:19.754Z,23.81
2022-08-18T01:31:57.169Z,23.80
2022-08-18T01:34:31.548Z,23.77
2022-08-18T01:37:06.541Z,23.75
2022-08-18T01:41:21.240Z,23.71
2022-08-18T01:42:33.583Z,23.68
2022-08-18T01:45:08.372Z,23.64
2022-08-18T01:47:47.110Z,23.62
2022-08-18T01:50:20.143Z,23.59
2022-08-18T01:52:53.606Z,23.56
2022-08-18T01:55:28.545Z,23.56
2022-08-18T01:58:01.589Z,23.52
2022-08-18T02:00:33.806Z,23.49
2022-08-18T02:03:11.375Z,23.45
2022-08-18T02:05:49.722Z,23.43
2022-08-18T02:08:22.135Z,23.41
2022-08-18T02:11:03.529Z,23.38
2022-08-18T02:13:35.561Z,23.30
2022-08-18T02:16:07.889Z,23.26
2022-08-18T02:18:48.280Z,23.24
2022-08-18T02:21:20.778Z,23.18
2022-08-18T02:23:54.423Z,23.17
2022-08-18T02:26:26.066Z,23.16
2022-08-18T02:28:57.706Z,23.13
2022-08-18T02:31:29.342Z,23.13
2022-08-18T02:34:01.096Z,23.11
2022-08-18T02:36:32.687Z,23.09
2022-08-18T02:39:04.402Z,23.06
2022-08-18T02:41:36.632Z,23.05
2022-08-18T02:44:09.342Z,23.04
2022-08-18T02:46:41.004Z,23.04
2022-08-18T02:49:12.787Z,23.02
2022-08-18T02:51:44.419Z,22.99
2022-08-18T02:54:16.039Z,22.94
2022-08-18T02:56:47.940Z,22.94
2022-08-18T02:59:26.424Z,22.91
2022-08-18T03:01:58.646Z,22.89
2022-08-18T03:04:31.247Z,22.87
2022-08-18T03:07:05.359Z,22.83
2022-08-18T03:09:37.494Z,22.82
2022-08-18T03:12:09.733Z,22.79
2022-08-18T03:14:44.194Z,22.78
2022-08-18T03:17:15.873Z,22.76
2022-08-18T03:19:47.981Z,22.76
2022-08-18T03:22:28.300Z,22.72
2022-08-18T03:25:05.623Z,22.70
2022-08-18T03:27:37.227Z,22.68
2022-08-18T03:30:11.264Z,22.66
2022-08-18T03:32:45.918Z,22.64
2022-08-18T03:35:17.823Z,22.61
2022-08-18T03:37:50.695Z,22.59
2022-08-18T03:40:22.404Z,22.58
2022-08-18T03:42:54.275Z,22.56
2022-08-18T03:45:28.567Z,22.52
2022-08-18T03:48:01.224Z,22.50
2022-08-18T03:50:32.946Z,22.51
2022-08-18T03:53:07.409Z,22.46
2022-08-18T03:55:42.137Z,22.45
2022-08-18T03:58:15.509Z,22.42
2022-08-18T04:00:47.389Z,22.40
2022-08-18T04:03:19.538Z,22.40
2022-08-18T04:05:51.122Z,22.36
2022-08-18T04:08:22.770Z,22.37
2022-08-18T04:11:05.650Z,22.40
2022-08-18T04:13:39.339Z,22.42
2022-08-18T04:16:11.648Z,22.41
2022-08-18T04:18:43.548Z,22.43
2022-08-18T04:21:15.141Z,22.44
2022-08-18T04:23:46.797Z,22.45
2022-08-18T04:26:20.013Z,22.45
2022-08-18T04:28:51.688Z,22.48
2022-08-18T04:31:24.798Z,22.50
2022-08-18T04:34:03.703Z,22.54
2022-08-18T04:36:36.380Z,22.57
2022-08-18T04:39:10.079Z,22.61
2022-08-18T04:41:47.510Z,22.66
2022-08-18T04:44:21.736Z,22.79
2022-08-18T04:46:54.011Z,22.91
2022-08-18T04:49:26.347Z,23.04
2022-08-18T04:52:39.314Z,23.13
2022-08-18T04:55:10.357Z,23.20
2022-08-18T04:57:42.841Z,23.27
2022-08-18T05:00:14.746Z,23.42
2022-08-18T05:02:46.571Z,23.54
2022-08-18T05:05:18.346Z,23.63
2022-08-18T05:07:49.931Z,23.72
2022-08-18T05:10:21.537Z,23.89
2022-08-18T05:12:53.110Z,24.07
2022-08-18T05:15:24.800Z,24.21
2022-08-18T05:17:56.686Z,24.27
2022-08-18T05:20:33.390Z,24.35
2022-08-18T05:23:07.272Z,24.42
2022-08-18T05:25:40.084Z,24.53
2022-08-18T05:28:13.471Z,24.75
2022-08-18T05:30:45.183Z,24.88
2022-08-18T05:33:17.230Z,25.08
2022-08-18T05:35:55.016Z,25.32
2022-08-18T05:38:42.432Z,25.60
2022-08-18T05:41:28.091Z,25.74
2022-08-18T05:44:01.474Z,25.87
2022-08-18T05:46:50.095Z,25.83
2022-08-18T05:49:24.405Z,25.71
2022-08-18T05:52:01.046Z,25.63
2022-08-18T05:55:03.786Z,25.56
2022-08-18T05:57:43.454Z,25.53
2022-08-18T06:00:21.221Z,25.48
2022-08-18T06:03:45.505Z,25.46
2022-08-18T06:06:24.140Z,25.35
2022-08-18T06:09:18.343Z,25.24
2022-08-18T06:11:50.470Z,25.23
2022-08-18T06:14:22.639Z,25.22
2022-08-18T06:17:21.666Z,25.24
2022-08-18T06:20:17.524Z,25.23
2022-08-18T06:23:06.270Z,25.15
2022-08-18T06:25:58.015Z,25.12
2022-08-18T06:29:14.783Z,25.12
2022-08-18T06:32:05.385Z,25.12
2022-08-18T06:35:04.942Z,25.07
2022-08-18T06:38:03.703Z,25.12
2022-08-18T06:40:35.542Z,25.20
2022-08-18T06:43:11.894Z,25.22
2022-08-18T06:45:48.530Z,25.22
2022-08-18T06:48:50.905Z,25.10
2022-08-18T06:51:27.594Z,25.05
2022-08-18T06:54:24.561Z,25.12
2022-08-18T06:56:57.774Z,25.16
2022-08-18T06:59:34.704Z,25.20
2022-08-18T07:02:21.285Z,25.20
2022-08-18T07:05:05.894Z,25.19
2022-08-18T07:07:40.875Z,25.34
2022-08-18T07:10:15.983Z,25.39
2022-08-18T07:12:47.573Z,25.41
2022-08-18T07:15:24.419Z,25.55
2022-08-18T07:18:05.329Z,25.63
2022-08-18T07:20:54.133Z,25.64
2022-08-18T07:23:34.724Z,25.71
2022-08-18T07:26:12.055Z,25.61
2022-08-18T07:28:52.974Z,25.51
2022-08-18T07:31:53.042Z,25.47
2022-08-18T07:34:37.294Z,25.43
2022-08-18T07:37:28.607Z,25.46
2022-08-18T07:40:27.490Z,25.43
2022-08-18T07:43:03.426Z,25.50
2022-08-18T07:45:42.827Z,25.54
2022-08-18T07:48:38.170Z,25.61
2022-08-18T07:51:37.549Z,25.73
2022-08-18T07:54:48.953Z,25.83
2022-08-18T07:57:42.911Z,25.91
2022-08-18T08:00:55.318Z,26.09
2022-08-18T08:03:50.317Z,26.04
2022-08-18T08:07:12.886Z,26.27
2022-08-18T08:09:58.403Z,26.67
2022-08-18T08:13:11.125Z,26.72
2022-08-18T08:16:16.740Z,27.28
2022-08-18T08:19:16.476Z,27.77
2022-08-18T08:22:04.695Z,28.17
2022-08-18T08:24:47.969Z,28.23
2022-08-18T08:27:56.696Z,28.57
2022-08-18T08:30:31.974Z,28.50
2022-08-18T08:33:18.071Z,28.82
2022-08-18T08:35:58.804Z,29.37
2022-08-18T08:38:47.097Z,29.92
2022-08-18T08:41:26.661Z,30.09
2022-08-18T08:44:24.817Z,30.67
2022-08-18T08:47:02.583Z,30.79
2022-08-18T08:50:00.538Z,30.80
2022-08-18T08:52:44.699Z,31.17
2022-08-18T08:55:25.412Z,31.57
2022-08-18T08:58:15.508Z,31.32
2022-08-18T09:00:49.725Z,31.42
2022-08-18T09:04:00.883Z,31.68
2022-08-18T09:06:32.522Z,32.16
2022-08-18T09:09:19.075Z,32.25
2022-08-18T09:12:31.994Z,32.54
2022-08-18T09:15:18.307Z,32.92
2022-08-18T09:17:58.863Z,32.91
2022-08-18T09:21:16.033Z,33.07
2022-08-18T09:23:53.179Z,33.18
2022-08-18T09:26:42.568Z,33.24
2022-08-18T09:29:37.153Z,33.24
2022-08-18T09:32:18.695Z,33.44
2022-08-18T09:35:23.138Z,33.55
2022-08-18T09:38:30.325Z,33.83
2022-08-18T09:41:35.202Z,33.91
2022-08-18T09:44:21.517Z,33.87
2022-08-18T09:47:07.829Z,33.81
2022-08-18T09:49:47.969Z,33.58
2022-08-18T09:52:25.431Z,33.77
2022-08-18T09:54:57.429Z,34.05
2022-08-18T09:57:42.101Z,33.99
2022-08-18T10:00:33.509Z,34.16
2022-08-18T10:03:13.923Z,34.39
2022-08-18T10:06:07.098Z,34.35
2022-08-18T10:09:01.929Z,34.32
2022-08-18T10:11:58.297Z,34.32
2022-08-18T10:14:37.039Z,34.35
2022-08-18T10:17:36.333Z,34.49
2022-08-18T10:20:23.900Z,34.48
2022-08-18T10:22:58.203Z,34.44
2022-08-18T10:25:33.875Z,34.51
2022-08-18T10:28:10.137Z,34.45
2022-08-18T10:30:57.302Z,34.18
2022-08-18T10:34:17.226Z,33.82
2022-08-18T10:36:54.940Z,33.87
2022-08-18T10:39:41.220Z,33.98
2022-08-18T10:42:31.525Z,34.02
2022-08-18T10:45:06.955Z,34.02
2022-08-18T10:47:38.688Z,34.06
2022-08-18T10:50:26.748Z,34.17
2022-08-18T10:53:17.006Z,34.30
2022-08-18T10:56:26.514Z,34.15
2022-08-18T10:59:19.487Z,34.23
2022-08-18T11:02:20.304Z,34.29
2022-08-18T11:04:58.985Z,34.43
2022-08-18T11:07:34.392Z,34.46
2022-08-18T11:10:57.489Z,34.67
2022-08-18T11:13:49.977Z,34.63
2022-08-18T11:16:42.922Z,34.57
2022-08-18T11:19:22.684Z,34.70
2022-08-18T11:21:54.836Z,34.84
2022-08-18T11:24:31.577Z,34.82
2022-08-18T11:27:22.689Z,34.90
2022-08-18T11:30:01.041Z,35.06
2022-08-18T11:32:44.226Z,35.37
2022-08-18T11:35:32.170Z,35.18
2022-08-18T11:38:13.579Z,35.06
2022-08-18T11:41:19.927Z,34.84
2022-08-18T11:43:57.946Z,34.56
2022-08-18T11:46:38.876Z,34.77
2022-08-18T11:49:30.079Z,35.13
2022-08-18T11:52:32.890Z,35.36
2022-08-18T11:55:24.552Z,35.24
2022-08-18T11:57:59.549Z,35.30
2022-08-18T12:00:42.722Z,35.26
2022-08-18T12:03:41.242Z,35.07
2022-08-18T12:06:27.900Z,34.67
2022-08-18T12:09:07.511Z,34.40
2022-08-18T12:11:53.760Z,34.34
2022-08-18T12:14:35.347Z,34.29
2022-08-18T12:17:14.049Z,34.18
2022-08-18T12:19:48.253Z,34.13
2022-08-18T12:22:28.202Z,34.08
2022-08-18T12:24:59.918Z,33.95
2022-08-18T12:27:33.758Z,33.98
2022-08-18T12:30:07.456Z,33.95
2022-08-18T12:32:50.513Z,33.86
2022-08-18T12:35:22.741Z,33.68
2022-08-18T12:38:03.158Z,33.72
2022-08-18T12:40:43.127Z,33.99
2022-08-18T12:43:14.791Z,34.24
2022-08-18T12:45:46.661Z,34.46
2022-08-18T12:48:18.753Z,34.57
2022-08-18T12:50:58.598Z,34.55
2022-08-18T12:53:38.263Z,34.53
2022-08-18T12:56:30.401Z,34.37
2022-08-18T12:59:05.218Z,34.08
2022-08-18T13:01:41.568Z,33.90
2022-08-18T13:04:15.688Z,33.83
2022-08-18T13:06:59.243Z,33.94
2022-08-18T13:09:53.576Z,34.12
2022-08-18T13:12:26.179Z,34.08
2022-08-18T13:14:59.206Z,34.00
2022-08-18T13:17:33.674Z,33.99
2022-08-18T13:20:10.711Z,34.02
2022-08-18T13:22:45.639Z,33.92
2022-08-18T13:25:32.748Z,33.93
2022-08-18T13:28:09.550Z,34.00
2022-08-18T13:30:46.263Z,34.02
2022-08-18T13:33:53.614Z,34.10
2022-08-18T13:36:12.615Z,34.02
2022-08-18T13:38:44.352Z,33.95
2022-08-18T13:41:16.793Z,33.97
2022-08-18T13:43:48.610Z,34.01
2022-08-18T13:46:24.077Z,33.97
2022-08-18T13:49:02.288Z,33.92
2022-08-18T13:51:35.489Z,33.94
2022-08-18T13:54:29.700Z,33.93
2022-08-18T13:57:04.382Z,33.98
2022-08-18T13:59:35.971Z,34.08
2022-08-18T14:02:10.585Z,34.15
2022-08-18T14:04:42.233Z,34.20
2022-08-18T14:07:19.320Z,34.26
2022-08-18T14:10:04.999Z,34.29
2022-08-18T14:12:37.862Z,34.33
2022-08-18T14:15:16.576Z,34.35
2022-08-18T14:17:48.362Z,34.30
2022-08-18T14:20:38.959Z,34.20
2022-08-18T14:23:38.445Z,34.16
2022-08-18T14:26:34.211Z,34.12
2022-08-18T14:29:05.827Z,34.07
2022-08-18T14:31:37.580Z,34.08
2022-08-18T14:34:09.737Z,34.12
2022-08-18T14:36:42.410Z,34.16
2022-08-18T14:39:15.668Z,34.11
2022-08-18T14:41:54.653Z,34.05
2022-08-18T14:44:31.923Z,34.09
2022-08-18T14:47:04.025Z,34.10
2022-08-18T14:49:36.178Z,34.07
2022-08-18T14:52:19.593Z,34.07
2022-08-18T14:54:51.413Z,34.10
2022-08-18T14:57:26.470Z,34.08
2022-08-18T14:59:58.669Z,34.10
2022-08-18T15:02:30.566Z,34.02
2022-08-18T15:05:02.440Z,34.03
2022-08-18T15:07:52.461Z,34.09
2022-08-18T15:10:27.934Z,34.09
2022-08-18T15:13:02.925Z,34.05
2022-08-18T15:15:50.987Z,33.99
2022-08-18T15:18:23.975Z,33.94
2022-08-18T15:21:19.607Z,33.97
2022-08-18T15:24:26.535Z,34.03
2022-08-18T15:27:05.678Z,34.05
2022-08-18T15:29:41.486Z,34.01
2022-08-18T15:32:17.533Z,34.00
2022-08-18T15:34:51.412Z,33.97
2022-08-18T15:37:24.284Z,33.94
2022-08-18T15:40:21.875Z,33.92
2022-08-18T15:43:10.528Z,33.92
2022-08-18T15:45:58.007Z,33.84
2022-08-18T15:48:30.074Z,33.77
2022-08-18T15:51:11.501Z,33.73
2022-08-18T15:53:45.750Z,33.72
2022-08-18T15:56:21.075Z,33.75
2022-08-18T15:58:52.867Z,33.70
2022-08-18T16:01:30.223Z,33.61
2022-08-18T16:04:05.741Z,33.52
2022-08-18T16:06:46.331Z,33.49
2022-08-18T16:09:17.933Z,33.44
2022-08-18T16:11:50.001Z,33.40
2022-08-18T16:14:21.580Z,33.34
2022-08-18T16:16:55.237Z,33.26
2022-08-18T16:19:26.719Z,33.23
2022-08-18T16:22:06.287Z,33.18
2022-08-18T16:24:37.947Z,33.15
2022-08-18T16:27:09.595Z,33.15
2022-08-18T16:29:41.254Z,33.12
2022-08-18T16:32:16.173Z,33.12
2022-08-18T16:34:49.067Z,33.10
2022-08-18T16:37:20.694Z,33.04
2022-08-18T16:39:52.852Z,32.99
2022-08-18T16:42:24.825Z,32.96
2022-08-18T16:44:56.397Z,32.91
2022-08-18T16:47:28.336Z,32.91
2022-08-18T16:50:00.181Z,32.86
2022-08-18T16:52:33.538Z,32.84
2022-08-18T16:55:07.660Z,32.81
2022-08-18T16:58:02.296Z,32.81
2022-08-18T17:00:54.852Z,32.76
2022-08-18T17:03:45.223Z,32.73
2022-08-18T17:06:18.699Z,32.72
2022-08-18T17:08:50.421Z,32.72
2022-08-18T17:11:23.663Z,32.67
2022-08-18T17:13:59.524Z,32.64
2022-08-18T17:16:31.212Z,32.62
2022-08-18T17:19:05.927Z,32.58
2022-08-18T17:21:38.006Z,32.51
2022-08-18T17:24:11.345Z,32.46
2022-08-18T17:26:59.716Z,32.41
2022-08-18T17:29:54.075Z,32.38
2022-08-18T17:32:44.146Z,32.34
2022-08-18T17:35:29.073Z,32.28
2022-08-18T17:38:08.804Z,32.24
2022-08-18T17:40:46.423Z,32.21
2022-08-18T17:43:27.893Z,32.14
2022-08-18T17:46:18.509Z,32.09
2022-08-18T17:48:57.790Z,32.06
2022-08-18T17:51:35.376Z,32.02
2022-08-18T17:54:39.437Z,31.98
2022-08-18T17:57:23.804Z,31.95
2022-08-18T18:00:09.677Z,31.90
2022-08-18T18:02:45.514Z,31.86
2022-08-18T18:05:20.133Z,31.81
2022-08-18T18:07:51.907Z,31.76
2022-08-18T18:10:30.102Z,31.68
2022-08-18T18:13:32.414Z,31.61
2022-08-18T18:16:19.871Z,31.57
2022-08-18T18:19:05.816Z,31.56
2022-08-18T18:22:00.970Z,31.51
2022-08-18T18:24:32.693Z,31.46
2022-08-18T18:27:24.981Z,31.37
2022-08-18T18:30:07.609Z,31.31
2022-08-18T18:32:59.090Z,31.26
2022-08-18T18:35:54.947Z,31.22
2022-08-18T18:38:31.360Z,31.18
2022-08-18T18:41:20.451Z,31.14
2022-08-18T18:44:06.238Z,31.10
2022-08-18T18:47:01.204Z,31.07
2022-08-18T18:49:39.980Z,31.07
2022-08-18T18:52:25.460Z,31.02
2022-08-18T18:55:19.315Z,30.95
2022-08-18T18:58:15.944Z,30.91
2022-08-18T19:00:53.833Z,30.90
2022-08-18T19:03:29.101Z,30.87
2022-08-18T19:06:03.634Z,30.86
2022-08-18T19:08:35.915Z,30.83
2022-08-18T19:11:26.701Z,30.78
2022-08-18T19:14:07.576Z,30.73
2022-08-18T19:16:59.724Z,30.67
2022-08-18T19:19:39.372Z,30.60
2022-08-18T19:22:19.241Z,30.58
2022-08-18T19:25:07.323Z,30.56
2022-08-18T19:28:02.609Z,30.56
2022-08-18T19:30:40.622Z,30.54
2022-08-18T19:33:24.786Z,30.50
2022-08-18T19:36:08.334Z,30.46
2022-08-18T19:39:11.287Z,30.42
2022-08-18T19:41:52.813Z,30.36
2022-08-18T19:44:29.219Z,30.28
2022-08-18T19:47:28.003Z,30.24
2022-08-18T19:49:59.897Z,30.17
2022-08-18T19:52:46.035Z,30.11
2022-08-18T19:55:40.499Z,30.05
2022-08-18T19:59:04.811Z,29.96
2022-08-18T20:01:52.896Z,29.88
2022-08-18T20:04:54.130Z,29.78
2022-08-18T20:07:31.492Z,29.69
2022-08-18T20:10:30.941Z,29.61
2022-08-18T20:13:32.608Z,29.56
2022-08-18T20:16:12.915Z,29.47
2022-08-18T20:18:49.025Z,29.36
2022-08-18T20:21:20.537Z,29.31
2022-08-18T20:24:05.026Z,29.20
2022-08-18T20:26:39.139Z,29.17
2022-08-18T20:29:18.993Z,29.12
2022-08-18T20:32:01.735Z,29.01
2022-08-18T20:34:35.442Z,28.95
2022-08-18T20:37:08.351Z,28.83
2022-08-18T20:39:46.898Z,28.76
2022-08-18T20:42:42.288Z,28.71
2022-08-18T20:45:28.756Z,28.65
2022-08-18T20:48:12.548Z,28.49
2022-08-18T20:50:54.218Z,28.34
2022-08-18T20:53:55.324Z,28.27
2022-08-18T20:56:37.438Z,28.22
2022-08-18T20:59:20.256Z,28.18
2022-08-18T21:01:58.275Z,28.14
2022-08-18T21:04:59.118Z,28.03
2022-08-18T21:07:38.941Z,27.92
2022-08-18T21:10:19.892Z,27.86
2022-08-18T21:12:57.149Z,27.68
2022-08-18T21:15:35.543Z,27.55
2022-08-18T21:18:24.494Z,27.49
2022-08-18T21:20:58.164Z,27.46
2022-08-18T21:23:34.513Z,27.41
2022-08-18T21:26:15.768Z,27.26
2022-08-18T21:28:51.893Z,27.21
2022-08-18T21:31:45.373Z,27.10
2022-08-18T21:34:35.602Z,27.03
2022-08-18T21:37:10.456Z,27.02
2022-08-18T21:40:01.256Z,26.97
2022-08-18T21:42:39.213Z,26.93
2022-08-18T21:45:23.221Z,26.92
2022-08-18T21:47:58.180Z,26.87
2022-08-18T21:50:34.816Z,26.79
2022-08-18T21:53:12.444Z,26.75
2022-08-18T21:55:47.327Z,26.70
2022-08-18T21:58:32.666Z,26.55
2022-08-18T22:01:11.932Z,26.52
2022-08-18T22:03:59.478Z,26.51
2022-08-18T22:06:40.587Z,26.48
2022-08-18T22:09:30.298Z,26.44
2022-08-18T22:12:52.047Z,26.36
2022-08-18T22:15:40.912Z,26.32
2022-08-18T22:18:18.306Z,26.28
2022-08-18T22:20:52.954Z,26.22
2022-08-18T22:24:06.185Z,26.14
2022-08-18T22:26:38.599Z,26.06
2022-08-18T22:29:10.130Z,26.08
2022-08-18T22:31:48.288Z,26.07
2022-08-18T22:34:28.198Z,25.98
2022-08-18T22:37:07.774Z,25.91
2022-08-18T22:39:46.127Z,25.92
2022-08-18T22:42:20.612Z,25.93
2022-08-18T22:44:53.205Z,25.91
2022-08-18T22:47:25.044Z,25.90
2022-08-18T22:49:57.355Z,25.88
2022-08-18T22:52:36.757Z,25.83
2022-08-18T22:55:10.783Z,25.68
2022-08-18T22:57:42.992Z,25.65
2022-08-18T23:00:19.278Z,25.64
2022-08-18T23:02:50.902Z,25.59
2022-08-18T23:05:23.276Z,25.58
2022-08-18T23:07:54.982Z,25.48
2022-08-18T23:10:26.694Z,25.46
2022-08-18T23:13:02.277Z,25.43
2022-08-18T23:15:43.634Z,25.45
2022-08-18T23:18:19.767Z,25.39
2022-08-18T23:20:59.057Z,25.35
2022-08-18T23:23:31.901Z,25.28
2022-08-18T23:26:03.589Z,25.27
2022-08-18T23:28:35.162Z,25.24
2022-08-18T23:31:06.830Z,25.01
2022-08-18T23:33:38.422Z,24.90
2022-08-18T23:36:10.587Z,24.86
2022-08-18T23:38:42.517Z,24.74
2022-08-18T23:41:16.276Z,24.68
2022-08-18T23:43:49.101Z,24.61
2022-08-18T23:46:28.739Z,24.66
2022-08-18T23:49:03.686Z,24.48
2022-08-18T23:51:49.062Z,24.38
2022-08-18T23:54:23.653Z,24.37
2022-08-18T23:56:55.405Z,24.32
2022-08-18T23:59:28.071Z,24.30
